createdAt,value
2022-08-03T00:02:13.575Z,15.70
2022-08-03T00:17:16.189Z,34.97
2022-08-03T00:32:18.141Z,57.60
2022-08-03T00:47:24.533Z,31.85
2022-08-03T01:02:27.648Z,28.23
2022-08-03T01:17:40.273Z,23.88
2022-08-03T01:33:01.016Z,23.40
2022-08-03T01:48:06.588Z,23.33
2022-08-03T02:03:11.909Z,25.02
2022-08-03T02:18:15.428Z,24.30
2022-08-03T02:33:27.616Z,22.08
2022-08-03T02:48:33.216Z,23.60
2022-08-03T03:03:39.976Z,24.15
2022-08-03T03:18:49.990Z,23.17
2022-08-03T03:33:51.957Z,26.38
2022-08-03T03:48:54.181Z,23.17
2022-08-03T04:03:56.098Z,24.57
2022-08-03T04:19:10.717Z,19.55
2022-08-03T04:34:12.795Z,20.75
2022-08-03T04:49:15.340Z,26.23
2022-08-03T05:04:17.340Z,25.93
2022-08-03T05:19:19.317Z,30.47
2022-08-03T05:34:21.183Z,20.27
2022-08-03T05:49:23.812Z,18.37
2022-08-03T06:04:25.709Z,17.38
2022-08-03T06:19:27.720Z,20.53
2022-08-03T06:34:32.733Z,20.52
2022-08-03T06:49:38.677Z,19.90
2022-08-03T07:04:40.667Z,14.80
2022-08-03T07:19:42.601Z,16.73
2022-08-03T07:34:44.481Z,16.77
2022-08-03T07:49:46.697Z,16.00
2022-08-03T08:04:48.598Z,11.93
2022-08-03T08:19:51.749Z,9.98
2022-08-03T08:34:55.486Z,10.63
2022-08-03T08:50:09.914Z,11.30
2022-08-03T09:05:18.228Z,17.05
2022-08-03T09:20:22.010Z,12.07
2022-08-03T09:35:51.558Z,16.27
2022-08-03T09:50:57.026Z,10.25
2022-08-03T10:06:15.611Z,11.87
2022-08-03T10:21:19.984Z,10.60
2022-08-03T10:36:24.712Z,6.63
2022-08-03T10:51:32.405Z,5.97
2022-08-03T11:06:37.278Z,11.68
2022-08-03T11:21:52.367Z,4.22
2022-08-03T11:37:21.851Z,3.28
2022-08-03T11:52:27.153Z,4.97
2022-08-03T12:08:03.128Z,3.03
2022-08-03T12:22:53.249Z,2.60
2022-08-03T12:37:55.277Z,3.05
2022-08-03T12:52:58.858Z,2.63
2022-08-03T13:08:00.947Z,3.38
2022-08-03T13:23:03.134Z,3.25
2022-08-03T13:38:05.075Z,3.05
2022-08-03T13:53:07.209Z,2.30
2022-08-03T14:08:09.286Z,3.20
2022-08-03T14:23:11.291Z,5.70
2022-08-03T14:38:15.074Z,3.40
2022-08-03T14:53:20.131Z,2.40
2022-08-03T15:08:23.645Z,3.35
2022-08-03T15:23:26.578Z,6.57
2022-08-03T15:38:28.544Z,4.50
2022-08-03T15:53:30.645Z,4.63
2022-08-03T16:08:32.720Z,5.28
2022-08-03T16:38:40.000Z,8.38
2022-08-03T16:54:05.798Z,4.30
2022-08-03T17:09:09.833Z,6.03
2022-08-03T17:24:31.441Z,6.57
2022-08-03T17:55:56.534Z,7.63
2022-08-03T18:10:49.697Z,7.35
2022-08-03T18:25:57.908Z,7.40
2022-08-03T18:41:00.190Z,6.95
2022-08-03T18:56:24.472Z,8.03
2022-08-03T19:12:12.553Z,6.47
2022-08-03T19:27:01.449Z,7.47
2022-08-03T19:57:37.253Z,7.07
2022-08-03T20:12:39.798Z,7.95
2022-08-03T20:43:07.349Z,6.35
2022-08-03T20:58:14.449Z,9.57
2022-08-03T21:13:02.803Z,5.70
2022-08-03T21:13:28.326Z,6.60
2022-08-03T21:28:30.401Z,10.07
2022-08-03T21:43:32.280Z,8.90
2022-08-03T21:58:44.997Z,8.83
2022-08-03T22:13:53.252Z,7.60
2022-08-03T22:28:57.536Z,11.70
2022-08-03T22:43:59.787Z,9.05
2022-08-03T22:59:40.729Z,8.02
2022-08-03T23:14:41.544Z,8.88
2022-08-03T23:29:44.090Z,8.63
2022-08-03T23:44:46.792Z,8.20
